Погода Едидина 2 недели

Северо-Апская Провинция, Малави

23 июля-05 августа
  • 23июля
    Сегодня
    +13°
    +25°
    Практически безоблачно
    ВремяПогодаТемператураВлажностьДавлениеВетер, м/сВероятность осадков
    02:00Ясно и безоблачно+15°C59 %652 мм4.7 м/с5 %
    05:00Ясно и безоблачно+14°C60 %652 мм4.4 м/с5 %
    08:00Ясно и безоблачно+19°C48 %655 мм4.3 м/с5 %
    11:00Практически безоблачно+22°C37 %656 мм4.8 м/с5 %
    14:00Практически безоблачно+24°C24 %655 мм4.1 м/с5 %
    17:00Ясно и безоблачно+21°C36 %654 мм3.9 м/с5 %
    20:00Ясно и безоблачно+15°C54 %654 мм2.3 м/с5 %
    23:00Ясно и безоблачно+14°C62 %653 мм2.5 м/с5 %
  • 24июля
    Среда
    +9°
    +25°
    Облачно с прояснениями
    ВремяПогодаТемператураВлажностьДавлениеВетер, м/сВероятность осадков
    02:00Ясно и безоблачно+13°C56 %652 мм2.8 м/с5 %
    05:00Ясно и безоблачно+14°C60 %652 мм3.7 м/с5 %
    08:00Практически безоблачно+19°C48 %655 мм3.7 м/с5 %
    11:00Облачно с прояснениями+23°C35 %656 мм4.1 м/с5 %
    14:00Облачно с прояснениями+25°C30 %654 мм2.0 м/с5 %
    17:00Небольшая облачность+21°C37 %653 мм4.1 м/с5 %
    20:00Ясно и безоблачно+17°C34 %652 мм4.7 м/с5 %
    23:00Ясно и безоблачно+16°C28 %652 мм3.9 м/с5 %
  • 25июля
    Четверг
    +13°
    +27°
    Ясно и безоблачно
    ВремяПогодаТемператураВлажностьДавлениеВетер, м/сВероятность осадков
    02:00Ясно и безоблачно+13°C49 %650 мм2.1 м/с5 %
    05:00Ясно и безоблачно+10°C65 %649 мм1.6 м/с5 %
    08:00Ясно и безоблачно+19°C44 %653 мм1.1 м/с5 %
    11:00Ясно и безоблачно+25°C18 %655 мм3.1 м/с5 %
    14:00Ясно и безоблачно+26°C14 %653 мм3.1 м/с5 %
    17:00Ясно и безоблачно+24°C17 %652 мм2.6 м/с5 %
    20:00Ясно и безоблачно+16°C61 %651 мм2.3 м/с5 %
    23:00Ясно и безоблачно+14°C56 %650 мм3.3 м/с5 %
  • 26июля
    Пятница
    +14°
    +27°
    Ясно и безоблачно
    ВремяПогодаТемператураВлажностьДавлениеВетер, м/сВероятность осадков
    02:00Ясно и безоблачно+15°C38 %649 мм3.5 м/с5 %
    05:00Практически безоблачно+14°C34 %650 мм3.9 м/с5 %
    08:00Ясно и безоблачно+20°C32 %653 мм3.2 м/с5 %
    11:00Ясно и безоблачно+25°C22 %654 мм3.1 м/с5 %
    14:00Ясно и безоблачно+26°C19 %652 мм2.6 м/с5 %
    17:00Ясно и безоблачно+23°C19 %652 мм3.8 м/с5 %
    20:00Ясно и безоблачно+16°C32 %651 мм3.4 м/с5 %
    23:00Ясно и безоблачно+15°C36 %650 мм3.3 м/с5 %
  • 27июля
    Суббота
    +15°
    +27°
    Ясно и безоблачно
    ВремяПогодаТемператураВлажностьДавлениеВетер, м/сВероятность осадков
    02:00Ясно и безоблачно+15°C36 %649 мм3.9 м/с5 %
    05:00Ясно и безоблачно+16°C38 %650 мм5.0 м/с5 %
    08:00Ясно и безоблачно+20°C35 %653 мм4.5 м/с5 %
    11:00Ясно и безоблачно+24°C29 %654 мм4.1 м/с5 %
    14:00Ясно и безоблачно+26°C23 %652 мм2.4 м/с5 %
    17:00Ясно и безоблачно+22°C29 %652 мм4.2 м/с5 %
    20:00Ясно и безоблачно+17°C32 %651 мм4.6 м/с5 %
    23:00Ясно и безоблачно+17°C35 %651 мм4.8 м/с5 %
Мы используем cookies
Соглашаюсь